Saint Johnsbury, Vermont
Current Conditions -  °F | °C
As of 7:35 PM on Saturday 25 Oct 2014 (Local Time) from KCDA Reporting Station
Drizzle Drizzle  
Wind Chill:   Ceiling: 4900
Heat Index:   Visibility: 10mi
Dew Point:   Wind: 3mph
Humidity: 83%   Direction: 100°E
Pressure: 29.53"   Gusts: NA
Location:  44.42°N, 72.01°W
Report Text: KCDA 252335Z AUTO 10003KT 10SM -DZ BKN049 BKN060 OVC100 10/07 A2953 RMK AO2 T00950068
Loading
Personal Weather Stations






























Interactive Weather Map New forecast layout! Learn more

10-Day Weather Forecast

Advertisements
Track Severe Weather on mobile